FW1277 Weather Reports


Display with metric or nautical units.
time (UTC)temp
F
wind
direction
speed
MPH
gust
MPH
rain 1hr
in
rain 24hr
in
rain mn
in
humidity
%
barometer
mb
20190221220055 38 109 6.0 12.0 0.00 0.06 0.02 63 1022.0
20190221214717 38 75 5.0 8.0 0.00 0.06 0.02 63 1022.1
20190221213102 38 65 7.0 13.0 0.00 0.06 0.02 60 1021.9
20190221211735 38 61 6.0 11.0 0.00 0.06 0.02 60 1022.0
20190221210118 39 56 6.0 11.0 0.00 0.10 0.02 59 1022.0
20190221204518 39 67 5.0 13.0 0.00 0.10 0.02 57 1022.3
20190221203201 39 101 8.0 12.0 0.00 0.10 0.02 55 1022.0
20190221201620 39 55 4.0 8.0 0.00 0.10 0.02 59 1021.7
20190221200101 40 93 5.0 12.0 0.00 0.18 0.02 57 1021.7
20190221194602 40 77 5.0 11.0 0.00 0.18 0.02 58 1021.8
20190221193157 40 96 6.0 11.0 0.00 0.18 0.02 56 1022.0
20190221191651 39 93 4.0 9.0 0.00 0.18 0.02 62 1021.8
20190221184712 39 55 6.0 10.0 0.00 0.26 0.02 61 1022.1
20190221183109 39 71 6.0 10.0 0.01 0.26 0.02 63 1022.2
20190221181639 39 55 6.0 10.0 0.01 0.26 0.02 64 1022.3
20190221171532 37 62 6.0 9.0 0.01 0.28 0.01 69 1023.2
20190221170052 36 53 4.0 7.0 0.01 0.28 0.01 74 1023.3
20190221164727 35 52 4.0 7.0 0.01 0.28 0.01 77 1023.4
20190221163142 34 49 5.0 8.0 0.01 0.28 0.01 79 1023.4
20190221161638 33 36 1.0 7.0 0.00 0.28 0.00 82 1022.9
20190221151543 28 66 2.0 4.0 0.00 0.28 0.00 94 1023.2
20190221144727 26 144 0.0 2.0 0.00 0.28 0.00 95 1022.9
20190221141626 25 134 0.0 2.0 0.00 0.28 0.00 95 1022.4
20190221140203 24 165 0.0 2.0 0.00 0.28 0.00 94 1022.3
20190221131639 23 168 1.0 2.0 0.00 0.28 0.00 94 1021.8
20190221130253 22 163 1.0 2.0 0.00 0.28 0.00 94 1021.3
20190221124656 22 164 1.0 3.0 0.00 0.28 0.00 93 1021.0
20190221123138 22 212 1.0 2.0 0.00 0.28 0.00 93 1020.6
20190221121539 21 214 0.0 1.0 0.00 0.28 0.00 93 1020.1
20190221120056 21 214 0.0 0.0 0.00 0.28 0.00 93 1020.1
20190221113024 21 214 0.0 1.0 0.00 0.28 0.00 93 1019.5
20190221111605 21 214 0.0 2.0 0.00 0.28 0.00 93 1019.2
20190221110044 21 214 0.0 0.0 0.00 0.28 0.00 92 1019.0
20190221104521 21 214 0.0 0.0 0.00 0.28 0.00 92 1019.0
20190221103136 22 214 0.0 0.0 0.00 0.28 0.00 92 1018.7
20190221101543 22 214 0.0 1.0 0.00 0.28 0.00 91 1018.6
20190221100053 23 214 0.0 0.0 0.00 0.28 0.00 91 1018.5
20190221094618 23 214 0.0 1.0 0.00 0.28 0.00 91 1018.6
20190221093133 24 214 0.0 1.0 0.00 0.28 0.00 91 1018.5
20190221091627 24 214 0.0 5.0 0.00 0.28 0.00 91 1018.8
20190221081818 25 199 3.0 7.0 0.00 0.28 0.00 91 1018.7
20190221080109 26 208 4.0 7.0 0.00 0.28 0.00 90 1018.6
20190221073019 27 207 3.0 7.0 0.00 0.28 0.00 89 1018.3
20190221071558 27 190 4.0 8.0 0.00 0.28 0.00 89 1017.9
20190221070012 27 181 3.0 6.0 0.00 0.28 0.00 89 1017.9
20190221064539 27 197 3.0 6.0 0.00 0.28 0.00 88 1017.8
20190221063027 27 198 3.0 7.0 0.00 0.28 0.00 88 1017.7
20190221061542 28 207 3.0 6.0 0.00 0.28 0.00 87 1017.4
20190221060051 28 193 4.0 9.0 0.00 0.28 0.28 87 1017.3
20190221054535 28 215 3.0 9.0 0.00 0.28 0.28 87 1017.2
20190221053037 29 213 4.0 10.0 0.00 0.28 0.28 86 1016.9
20190221051552 29 214 5.0 10.0 0.00 0.28 0.28 86 1017.0
20190221050103 29 199 6.0 10.0 0.00 0.28 0.28 85 1016.8
20190221044608 29 221 6.0 9.0 0.00 0.28 0.28 85 1016.7
20190221043051 29 198 5.0 9.0 0.00 0.28 0.28 84 1016.3
20190221041555 29 219 3.0 9.0 0.00 0.28 0.28 83 1016.3
20190221040145 30 195 6.0 12.0 0.00 0.28 0.28 83 1016.1
20190221034738 30 206 6.0 9.0 0.00 0.28 0.28 83 1015.6
20190221033156 30 187 5.0 8.0 0.00 0.28 0.28 82 1015.3
20190221031547 30 208 4.0 9.0 0.00 0.28 0.28 82 1015.1
20190221030020 30 196 4.0 9.0 0.00 0.28 0.28 82 1014.6
20190221024509 30 196 3.0 9.0 0.00 0.28 0.28 82 1014.5
20190221023031 31 228 3.0 8.0 0.00 0.28 0.28 81 1014.1
20190221021507 31 225 3.0 7.0 0.00 0.28 0.28 81 1014.0
20190221020150 31 216 4.0 8.0 0.00 0.28 0.28 80 1013.9
20190221014651 31 210 4.0 9.0 0.00 0.28 0.28 79 1013.7
20190221013126 32 197 4.0 8.0 0.00 0.28 0.28 78 1013.5
20190221011615 32 206 4.0 7.0 0.00 0.28 0.28 77 1013.3
20190221010006 32 203 4.0 7.0 0.00 0.28 0.28 76 1012.9
20190221003147 33 213 4.0 10.0 0.00 0.28 0.28 75 1012.6
20190221001622 34 215 4.0 8.0 0.00 0.28 0.28 74 1012.4
20190220234503 35 223 7.0 14.0 0.01 0.28 0.28 71 1011.9
20190220233003 36 263 7.0 14.0 0.01 0.28 0.28 71 1011.8
20190220230134 36 212 5.0 15.0 0.01 0.27 0.27 70 1011.4
20190220224613 36 234 7.0 16.0 0.02 0.27 0.27 70 1011.4
20190220223130 37 177 7.0 15.0 0.02 0.27 0.27 70 1011.4
20190220221511 36 232 8.0 20.0 0.01 0.26 0.26 69 1011.1